Portada
METAR-TAF:

METAR-TAF

Aeroports :

Kasane, Botswana

latitud: 17-49S, longitud: 025-09E, altitud: 968 m

Observació

L'informe es va fer fa 21 minuts, a les 03:00 UTC
Vent 9 kt del Sud-Est
Temperatura 18°C
Humitat 24%
Pressió 1021 hPa
Visibilitat 10 km o més
sense núvols per sota de 1500 mi sense presència de cumulonimbus.

METAR: FBKE 200300Z 13009KT CAVOK 18/M03 Q1021

Hora: 05:21 (03:21 UTC)

Pronòstic

L'informe es va fer fa 15 hores i 21 minuts, a les 12:00 UTC
Pronòstic vàlid del 19 a les 15 UTC al 19 a les 24 UTC
Vent 12 kt del Est/Sud-Est
Visibilitat 10 km o més
sense núvols per sota de 1500 mi sense presència de cumulonimbus.

TAF: FBKE 191200Z 1915/1924 11012KT CAVOK

Observacions i pronòstics meteorològics de més de 4000 aeroports (METAR i TAF).

Les estacions disponibles són els punts grocs i vermells al mapa.

Posi el ratolí al punt desitjat per veure el nom de l'estació.

Feu clic per veure les observacions i els pronòstics meteorològics.

Per canviar el mapa: feu clic els botons verds amb una creu de color negre per apropar; al botó verd amb un guió per allunyar la imatge; o en les fletxes verdes per a mapes adjacents.


METAR-TAF: